sensor_id;sensor_type;location;lat;lon;timestamp;pressure;altitude;pressure_sealevel;temperature;humidity
12801;BME280;6464;42.494;27.470;2023-04-26T04:00:37;98350.03;;;12.71;100.00
12801;BME280;6464;42.494;27.470;2023-04-26T04:03:16;98281.94;;;12.21;100.00
12801;BME280;6464;42.494;27.470;2023-04-26T04:09:47;98525.16;;;13.32;100.00
12801;BME280;6464;42.494;27.470;2023-04-26T04:12:49;98460.50;;;13.36;100.00
12801;BME280;6464;42.494;27.470;2023-04-26T04:19:03;98481.78;;;13.34;100.00
12801;BME280;6464;42.494;27.470;2023-04-26T04:22:15;98492.66;;;13.30;100.00
12801;BME280;6464;42.494;27.470;2023-04-26T04:28:20;98398.19;;;11.92;100.00
12801;BME280;6464;42.494;27.470;2023-04-26T04:31:05;98474.91;;;12.62;100.00
12801;BME280;6464;42.494;27.470;2023-04-26T04:33:40;98413.94;;;12.22;100.00
12801;BME280;6464;42.494;27.470;2023-04-26T05:09:00;98114.44;;;12.36;100.00
12801;BME280;6464;42.494;27.470;2023-04-26T05:12:06;98052.72;;;12.37;100.00
12801;BME280;6464;42.494;27.470;2023-04-26T05:14:38;97933.81;;;11.86;100.00
12801;BME280;6464;42.494;27.470;2023-04-26T05:17:09;98006.19;;;12.47;100.00
12801;BME280;6464;42.494;27.470;2023-04-26T05:19:52;97870.94;;;11.66;100.00
12801;BME280;6464;42.494;27.470;2023-04-26T05:22:23;97752.28;;;11.26;100.00
12801;BME280;6464;42.494;27.470;2023-04-26T05:25:12;97783.63;;;11.94;100.00
12801;BME280;6464;42.494;27.470;2023-04-26T05:27:50;97819.41;;;12.11;100.00
12801;BME280;6464;42.494;27.470;2023-04-26T05:30:18;97656.69;;;11.35;100.00
12801;BME280;6464;42.494;27.470;2023-04-26T05:32:50;97679.63;;;11.71;100.00
12801;BME280;6464;42.494;27.470;2023-04-26T05:35:18;97751.13;;;12.66;100.00
12801;BME280;6464;42.494;27.470;2023-04-26T05:37:57;97564.34;;;11.72;100.00
12801;BME280;6464;42.494;27.470;2023-04-26T05:43:11;97514.28;;;12.41;100.00
12801;BME280;6464;42.494;27.470;2023-04-26T05:45:50;97548.56;;;12.98;100.00
12801;BME280;6464;42.494;27.470;2023-04-26T05:48:23;97456.63;;;12.57;100.00
12801;BME280;6464;42.494;27.470;2023-04-26T05:50:57;97621.94;;;13.41;100.00
12801;BME280;6464;42.494;27.470;2023-04-26T05:53:40;97454.22;;;12.65;100.00
12801;BME280;6464;42.494;27.470;2023-04-26T05:56:21;97436.22;;;12.48;100.00
12801;BME280;6464;42.494;27.470;2023-04-26T05:59:01;97531.72;;;12.99;100.00
12801;BME280;6464;42.494;27.470;2023-04-26T06:04:40;97520.44;;;12.52;100.00
12801;BME280;6464;42.494;27.470;2023-04-26T06:07:25;97723.72;;;13.71;100.00
12801;BME280;6464;42.494;27.470;2023-04-26T06:09:59;97593.88;;;12.82;100.00
12801;BME280;6464;42.494;27.470;2023-04-26T06:12:31;97579.06;;;12.69;100.00
12801;BME280;6464;42.494;27.470;2023-04-26T06:15:19;97739.41;;;13.16;100.00
12801;BME280;6464;42.494;27.470;2023-04-26T06:17:57;97783.13;;;12.98;100.00
12801;BME280;6464;42.494;27.470;2023-04-26T06:20:34;97773.19;;;13.12;100.00
12801;BME280;6464;42.494;27.470;2023-04-26T06:23:04;97731.88;;;12.28;100.00
12801;BME280;6464;42.494;27.470;2023-04-26T06:25:36;97977.16;;;13.57;100.00
12801;BME280;6464;42.494;27.470;2023-04-26T06:28:07;97926.47;;;13.03;100.00
12801;BME280;6464;42.494;27.470;2023-04-26T06:36:25;97998.09;;;13.00;100.00
12801;BME280;6464;42.494;27.470;2023-04-26T06:38:55;98133.09;;;13.49;100.00
12801;BME280;6464;42.494;27.470;2023-04-26T06:44:19;98173.06;;;13.57;100.00
12801;BME280;6464;42.494;27.470;2023-04-26T06:46:54;98030.31;;;12.55;100.00
12801;BME280;6464;42.494;27.470;2023-04-26T06:49:23;98007.78;;;12.75;100.00
12801;BME280;6464;42.494;27.470;2023-04-26T06:52:00;98035.44;;;12.95;100.00
12801;BME280;6464;42.494;27.470;2023-04-26T06:54:33;98116.50;;;13.58;100.00
12801;BME280;6464;42.494;27.470;2023-04-26T06:57:04;98050.44;;;13.20;100.00
12801;BME280;6464;42.494;27.470;2023-04-26T06:59:35;98043.94;;;13.37;100.00
12801;BME280;6464;42.494;27.470;2023-04-26T07:02:03;98220.19;;;14.14;100.00
12801;BME280;6464;42.494;27.470;2023-04-26T07:04:36;98255.34;;;14.17;100.00
12801;BME280;6464;42.494;27.470;2023-04-26T07:07:07;98201.22;;;13.84;100.00
12801;BME280;6464;42.494;27.470;2023-04-26T07:09:37;98255.28;;;14.05;100.00
12801;BME280;6464;42.494;27.470;2023-04-26T07:12:16;98249.38;;;13.40;100.00
12801;BME280;6464;42.494;27.470;2023-04-26T07:14:46;98381.66;;;14.67;100.00
12801;BME280;6464;42.494;27.470;2023-04-26T07:17:15;98312.78;;;14.29;100.00
12801;BME280;6464;42.494;27.470;2023-04-26T07:19:48;98267.88;;;14.14;100.00
12801;BME280;6464;42.494;27.470;2023-04-26T07:22:20;98332.16;;;14.79;100.00
12801;BME280;6464;42.494;27.470;2023-04-26T07:24:55;98420.56;;;14.79;100.00
12801;BME280;6464;42.494;27.470;2023-04-26T07:27:29;98545.72;;;15.47;100.00
12801;BME280;6464;42.494;27.470;2023-04-26T07:29:57;98652.53;;;16.12;100.00
12801;BME280;6464;42.494;27.470;2023-04-26T07:32:24;98642.78;;;16.00;100.00
12801;BME280;6464;42.494;27.470;2023-04-26T07:34:52;98628.31;;;16.63;100.00
12801;BME280;6464;42.494;27.470;2023-04-26T07:37:21;98804.75;;;17.69;100.00
12801;BME280;6464;42.494;27.470;2023-04-26T07:39:49;98708.78;;;17.69;100.00
12801;BME280;6464;42.494;27.470;2023-04-26T07:42:17;98867.94;;;18.36;100.00
12801;BME280;6464;42.494;27.470;2023-04-26T07:44:47;98869.03;;;17.89;100.00
12801;BME280;6464;42.494;27.470;2023-04-26T07:47:23;98942.78;;;18.35;100.00
12801;BME280;6464;42.494;27.470;2023-04-26T07:49:52;99188.38;;;18.81;100.00
12801;BME280;6464;42.494;27.470;2023-04-26T07:52:22;99122.13;;;18.16;100.00
12801;BME280;6464;42.494;27.470;2023-04-26T07:54:50;99031.50;;;18.03;100.00
12801;BME280;6464;42.494;27.470;2023-04-26T07:57:20;99206.94;;;18.71;100.00
12801;BME280;6464;42.494;27.470;2023-04-26T07:59:48;99121.91;;;18.65;100.00
12801;BME280;6464;42.494;27.470;2023-04-26T08:02:19;99165.69;;;18.87;100.00
12801;BME280;6464;42.494;27.470;2023-04-26T08:05:04;99204.78;;;18.88;100.00
12801;BME280;6464;42.494;27.470;2023-04-26T08:07:54;99252.66;;;18.43;100.00
12801;BME280;6464;42.494;27.470;2023-04-26T08:10:27;99341.34;;;18.10;100.00
12801;BME280;6464;42.494;27.470;2023-04-26T08:13:00;99289.31;;;17.53;100.00
12801;BME280;6464;42.494;27.470;2023-04-26T08:15:30;99252.66;;;17.31;100.00
12801;BME280;6464;42.494;27.470;2023-04-26T08:18:07;99310.19;;;17.34;100.00
12801;BME280;6464;42.494;27.470;2023-04-26T08:20:38;99204.16;;;15.94;100.00
12801;BME280;6464;42.494;27.470;2023-04-26T08:23:16;99278.47;;;16.51;100.00
12801;BME280;6464;42.494;27.470;2023-04-26T08:25:48;99082.47;;;14.88;100.00
12801;BME280;6464;42.494;27.470;2023-04-26T08:28:21;99226.03;;;15.85;100.00
12801;BME280;6464;42.494;27.470;2023-04-26T08:30:50;99105.53;;;15.57;100.00
12801;BME280;6464;42.494;27.470;2023-04-26T08:33:22;99028.91;;;15.37;100.00
12801;BME280;6464;42.494;27.470;2023-04-26T08:35:50;99094.63;;;15.89;100.00
12801;BME280;6464;42.494;27.470;2023-04-26T08:38:21;99078.13;;;16.36;100.00
12801;BME280;6464;42.494;27.470;2023-04-26T08:40:51;99044.91;;;16.29;100.00
12801;BME280;6464;42.494;27.470;2023-04-26T08:43:18;99096.69;;;16.63;100.00
12801;BME280;6464;42.494;27.470;2023-04-26T08:45:47;99013.41;;;16.49;100.00
12801;BME280;6464;42.494;27.470;2023-04-26T08:48:15;98957.28;;;15.62;100.00
12801;BME280;6464;42.494;27.470;2023-04-26T08:50:45;99206.69;;;15.54;100.00
12801;BME280;6464;42.494;27.470;2023-04-26T08:53:14;99149.31;;;14.95;100.00
12801;BME280;6464;42.494;27.470;2023-04-26T08:55:48;99078.13;;;14.58;100.00
12801;BME280;6464;42.494;27.470;2023-04-26T08:58:19;99125.78;;;14.30;100.00
12801;BME280;6464;42.494;27.470;2023-04-26T09:00:58;99190.38;;;14.59;100.00
12801;BME280;6464;42.494;27.470;2023-04-26T09:03:42;99150.13;;;14.52;100.00
12801;BME280;6464;42.494;27.470;2023-04-26T09:06:12;99045.44;;;14.13;100.00
12801;BME280;6464;42.494;27.470;2023-04-26T09:08:41;99058.06;;;14.24;100.00
12801;BME280;6464;42.494;27.470;2023-04-26T09:11:11;99107.13;;;14.31;100.00
12801;BME280;6464;42.494;27.470;2023-04-26T09:13:39;99103.00;;;14.42;100.00
12801;BME280;6464;42.494;27.470;2023-04-26T09:16:07;99007.59;;;13.81;100.00
12801;BME280;6464;42.494;27.470;2023-04-26T09:18:48;98942.19;;;13.68;100.00
12801;BME280;6464;42.494;27.470;2023-04-26T09:21:19;98995.75;;;13.73;100.00
12801;BME280;6464;42.494;27.470;2023-04-26T09:23:57;98927.41;;;13.49;100.00
12801;BME280;6464;42.494;27.470;2023-04-26T09:26:31;99090.56;;;14.28;100.00
12801;BME280;6464;42.494;27.470;2023-04-26T09:29:14;99020.16;;;14.52;100.00
12801;BME280;6464;42.494;27.470;2023-04-26T09:31:48;98939.50;;;13.83;100.00
12801;BME280;6464;42.494;27.470;2023-04-26T09:34:19;98827.13;;;13.43;100.00
12801;BME280;6464;42.494;27.470;2023-04-26T09:36:52;99014.88;;;14.08;100.00
12801;BME280;6464;42.494;27.470;2023-04-26T09:39:38;98902.84;;;13.31;100.00
12801;BME280;6464;42.494;27.470;2023-04-26T09:42:10;98920.41;;;13.62;100.00
12801;BME280;6464;42.494;27.470;2023-04-26T09:44:42;98866.91;;;13.27;100.00
12801;BME280;6464;42.494;27.470;2023-04-26T09:47:13;98782.81;;;12.72;100.00
12801;BME280;6464;42.494;27.470;2023-04-26T09:49:46;98937.25;;;13.61;100.00
12801;BME280;6464;42.494;27.470;2023-04-26T09:52:16;98804.91;;;12.55;100.00
12801;BME280;6464;42.494;27.470;2023-04-26T09:54:48;98791.06;;;12.66;100.00
12801;BME280;6464;42.494;27.470;2023-04-26T09:57:22;98689.59;;;12.23;100.00
12801;BME280;6464;42.494;27.470;2023-04-26T09:59:55;98674.88;;;12.19;100.00
12801;BME280;6464;42.494;27.470;2023-04-26T10:02:28;98771.19;;;13.19;100.00
12801;BME280;6464;42.494;27.470;2023-04-26T10:04:56;98768.88;;;13.43;100.00
12801;BME280;6464;42.494;27.470;2023-04-26T10:07:26;98793.84;;;13.39;100.00
12801;BME280;6464;42.494;27.470;2023-04-26T10:09:56;98611.78;;;12.28;100.00
12801;BME280;6464;42.494;27.470;2023-04-26T10:12:31;98700.28;;;12.51;100.00
12801;BME280;6464;42.494;27.470;2023-04-26T10:15:08;98638.88;;;11.86;100.00
12801;BME280;6464;42.494;27.470;2023-04-26T10:17:46;98761.91;;;12.98;100.00
12801;BME280;6464;42.494;27.470;2023-04-26T10:20:18;98643.63;;;12.55;100.00
12801;BME280;6464;42.494;27.470;2023-04-26T10:22:54;98648.72;;;13.46;100.00
12801;BME280;6464;42.494;27.470;2023-04-26T10:25:38;98730.22;;;13.69;100.00
12801;BME280;6464;42.494;27.470;2023-04-26T10:28:19;98660.31;;;13.57;100.00
12801;BME280;6464;42.494;27.470;2023-04-26T10:31:11;98598.53;;;14.11;100.00
12801;BME280;6464;42.494;27.470;2023-04-26T10:33:42;98581.09;;;14.47;100.00
12801;BME280;6464;42.494;27.470;2023-04-26T10:36:11;98556.19;;;13.97;100.00
12801;BME280;6464;42.494;27.470;2023-04-26T10:39:16;98827.50;;;15.31;100.00
12801;BME280;6464;42.494;27.470;2023-04-26T10:41:33;98785.75;;;15.58;100.00
12801;BME280;6464;42.494;27.470;2023-04-26T10:47:05;98983.19;;;16.88;100.00
12801;BME280;6464;42.494;27.470;2023-04-26T10:49:43;99083.31;;;16.12;100.00
12801;BME280;6464;42.494;27.470;2023-04-26T10:52:15;99026.06;;;16.19;100.00
12801;BME280;6464;42.494;27.470;2023-04-26T10:54:52;98982.38;;;15.31;100.00
12801;BME280;6464;42.494;27.470;2023-04-26T10:57:21;99121.09;;;15.63;100.00
12801;BME280;6464;42.494;27.470;2023-04-26T11:00:14;99114.44;;;15.15;100.00
12801;BME280;6464;42.494;27.470;2023-04-26T11:03:08;98923.97;;;13.92;100.00
12801;BME280;6464;42.494;27.470;2023-04-26T11:05:56;99007.00;;;14.51;100.00
12801;BME280;6464;42.494;27.470;2023-04-26T11:08:26;99022.09;;;14.91;100.00
12801;BME280;6464;42.494;27.470;2023-04-26T11:11:04;98860.63;;;13.58;100.00
12801;BME280;6464;42.494;27.470;2023-04-26T11:13:39;99008.28;;;14.58;100.00
12801;BME280;6464;42.494;27.470;2023-04-26T11:16:10;98858.94;;;13.72;100.00
12801;BME280;6464;42.494;27.470;2023-04-26T11:18:47;98827.72;;;13.91;100.00
12801;BME280;6464;42.494;27.470;2023-04-26T11:21:36;98872.91;;;14.45;100.00
12801;BME280;6464;42.494;27.470;2023-04-26T11:24:14;99009.53;;;14.81;100.00
12801;BME280;6464;42.494;27.470;2023-04-26T11:26:55;98948.13;;;14.73;100.00
12801;BME280;6464;42.494;27.470;2023-04-26T11:29:23;98948.50;;;14.67;100.00
12801;BME280;6464;42.494;27.470;2023-04-26T11:31:53;99006.00;;;14.95;100.00
12801;BME280;6464;42.494;27.470;2023-04-26T11:34:30;99011.03;;;14.85;100.00
12801;BME280;6464;42.494;27.470;2023-04-26T11:37:00;98879.88;;;14.05;100.00
12801;BME280;6464;42.494;27.470;2023-04-26T11:39:30;98832.31;;;14.30;100.00
12801;BME280;6464;42.494;27.470;2023-04-26T11:42:04;98874.53;;;14.62;100.00
12801;BME280;6464;42.494;27.470;2023-04-26T11:44:35;98829.06;;;14.39;100.00
12801;BME280;6464;42.494;27.470;2023-04-26T11:47:04;98953.91;;;15.06;100.00
12801;BME280;6464;42.494;27.470;2023-04-26T11:49:38;98947.31;;;14.99;100.00
12801;BME280;6464;42.494;27.470;2023-04-26T11:52:14;98987.13;;;15.26;100.00
12801;BME280;6464;42.494;27.470;2023-04-26T11:54:46;98875.22;;;14.51;100.00
12801;BME280;6464;42.494;27.470;2023-04-26T11:57:15;98883.25;;;14.91;100.00
12801;BME280;6464;42.494;27.470;2023-04-26T11:59:44;98925.63;;;14.51;100.00
12801;BME280;6464;42.494;27.470;2023-04-26T12:02:12;99070.00;;;15.31;100.00
12801;BME280;6464;42.494;27.470;2023-04-26T12:04:42;98913.59;;;15.14;100.00
12801;BME280;6464;42.494;27.470;2023-04-26T12:07:09;98975.88;;;16.02;100.00
12801;BME280;6464;42.494;27.470;2023-04-26T12:09:40;98898.34;;;16.21;100.00
12801;BME280;6464;42.494;27.470;2023-04-26T12:12:09;98950.31;;;16.38;100.00
12801;BME280;6464;42.494;27.470;2023-04-26T12:14:41;99049.56;;;17.15;100.00
12801;BME280;6464;42.494;27.470;2023-04-26T12:17:23;98923.69;;;16.76;100.00
12801;BME280;6464;42.494;27.470;2023-04-26T12:20:15;99067.38;;;17.51;100.00
12801;BME280;6464;42.494;27.470;2023-04-26T12:23:05;99174.56;;;17.80;100.00
12801;BME280;6464;42.494;27.470;2023-04-26T12:25:53;99113.03;;;17.34;100.00
12801;BME280;6464;42.494;27.470;2023-04-26T12:28:26;99217.69;;;16.85;100.00
12801;BME280;6464;42.494;27.470;2023-04-26T12:30:54;99061.19;;;15.31;100.00
12801;BME280;6464;42.494;27.470;2023-04-26T12:33:30;99090.50;;;15.71;100.00
12801;BME280;6464;42.494;27.470;2023-04-26T12:36:05;99070.44;;;15.52;100.00
12801;BME280;6464;42.494;27.470;2023-04-26T12:38:34;99106.50;;;15.42;100.00
12801;BME280;6464;42.494;27.470;2023-04-26T12:41:04;99189.44;;;16.03;100.00
12801;BME280;6464;42.494;27.470;2023-04-26T12:43:32;99049.28;;;15.51;100.00
12801;BME280;6464;42.494;27.470;2023-04-26T12:46:04;98981.69;;;15.28;100.00
12801;BME280;6464;42.494;27.470;2023-04-26T12:48:36;99098.69;;;15.94;100.00
12801;BME280;6464;42.494;27.470;2023-04-26T12:51:05;99079.81;;;15.58;100.00
12801;BME280;6464;42.494;27.470;2023-04-26T12:53:34;99144.59;;;17.14;100.00
12801;BME280;6464;42.494;27.470;2023-04-26T12:56:05;99157.38;;;18.08;100.00
12801;BME280;6464;42.494;27.470;2023-04-26T12:58:37;99129.28;;;18.97;100.00
12801;BME280;6464;42.494;27.470;2023-04-26T13:01:08;99115.41;;;18.69;100.00
12801;BME280;6464;42.494;27.470;2023-04-26T13:03:42;99191.72;;;19.86;100.00
12801;BME280;6464;42.494;27.470;2023-04-26T13:06:28;99266.34;;;22.01;100.00
12801;BME280;6464;42.494;27.470;2023-04-26T13:08:56;99343.50;;;22.99;100.00
12801;BME280;6464;42.494;27.470;2023-04-26T13:11:23;99595.81;;;23.03;100.00
12801;BME280;6464;42.494;27.470;2023-04-26T13:13:50;99959.34;;;22.97;100.00
12801;BME280;6464;42.494;27.470;2023-04-26T13:16:17;100056.31;;;22.27;100.00
12801;BME280;6464;42.494;27.470;2023-04-26T13:18:44;99853.34;;;21.09;100.00
12801;BME280;6464;42.494;27.470;2023-04-26T13:21:20;100019.09;;;21.15;100.00
12801;BME280;6464;42.494;27.470;2023-04-26T13:24:09;99980.81;;;20.89;100.00
12801;BME280;6464;42.494;27.470;2023-04-26T13:26:50;100056.34;;;21.44;100.00
12801;BME280;6464;42.494;27.470;2023-04-26T13:29:18;99944.81;;;21.28;100.00
12801;BME280;6464;42.494;27.470;2023-04-26T13:31:45;100072.66;;;21.89;100.00
12801;BME280;6464;42.494;27.470;2023-04-26T13:34:12;100044.13;;;21.40;100.00
12801;BME280;6464;42.494;27.470;2023-04-26T13:36:39;100072.25;;;21.82;100.00
12801;BME280;6464;42.494;27.470;2023-04-26T13:39:09;100166.31;;;22.28;100.00
12801;BME280;6464;42.494;27.470;2023-04-26T13:41:46;100066.63;;;21.50;100.00
12801;BME280;6464;42.494;27.470;2023-04-26T13:44:15;100008.22;;;21.53;100.00
12801;BME280;6464;42.494;27.470;2023-04-26T13:46:48;99841.19;;;20.68;100.00
12801;BME280;6464;42.494;27.470;2023-04-26T13:49:16;99885.91;;;20.92;100.00
12801;BME280;6464;42.494;27.470;2023-04-26T13:51:46;99778.09;;;20.64;100.00
12801;BME280;6464;42.494;27.470;2023-04-26T13:54:16;99564.88;;;19.56;100.00
12801;BME280;6464;42.494;27.470;2023-04-26T13:56:46;99535.81;;;20.11;100.00
12801;BME280;6464;42.494;27.470;2023-04-26T13:59:19;99513.72;;;19.85;100.00
12801;BME280;6464;42.494;27.470;2023-04-26T14:01:46;99506.31;;;19.88;100.00
12801;BME280;6464;42.494;27.470;2023-04-26T14:04:19;99423.25;;;19.55;100.00
12801;BME280;6464;42.494;27.470;2023-04-26T14:06:47;99423.94;;;19.69;100.00
12801;BME280;6464;42.494;27.470;2023-04-26T14:09:23;99310.75;;;18.63;100.00
12801;BME280;6464;42.494;27.470;2023-04-26T14:11:56;99170.19;;;17.66;100.00
12801;BME280;6464;42.494;27.470;2023-04-26T14:14:33;99218.56;;;19.17;100.00
12801;BME280;6464;42.494;27.470;2023-04-26T14:17:16;99475.88;;;20.69;100.00
12801;BME280;6464;42.494;27.470;2023-04-26T14:19:47;99953.13;;;22.52;100.00
12801;BME280;6464;42.494;27.470;2023-04-26T14:22:14;100304.84;;;23.27;100.00
12801;BME280;6464;42.494;27.470;2023-04-26T14:24:43;100553.66;;;24.84;100.00
12801;BME280;6464;42.494;27.470;2023-04-26T14:27:10;100615.44;;;24.54;100.00
12801;BME280;6464;42.494;27.470;2023-04-26T14:29:37;100591.41;;;24.62;100.00
12801;BME280;6464;42.494;27.470;2023-04-26T14:32:04;100649.13;;;24.59;100.00
12801;BME280;6464;42.494;27.470;2023-04-26T14:34:32;100665.91;;;25.09;100.00
12801;BME280;6464;42.494;27.470;2023-04-26T14:37:00;100671.00;;;25.01;100.00
12801;BME280;6464;42.494;27.470;2023-04-26T14:39:28;100674.34;;;25.16;100.00
12801;BME280;6464;42.494;27.470;2023-04-26T14:41:56;100709.75;;;25.56;100.00
12801;BME280;6464;42.494;27.470;2023-04-26T14:44:23;100690.41;;;25.40;100.00
12801;BME280;6464;42.494;27.470;2023-04-26T14:46:51;100696.25;;;24.89;100.00
12801;BME280;6464;42.494;27.470;2023-04-26T14:49:18;100563.91;;;23.40;100.00
12801;BME280;6464;42.494;27.470;2023-04-26T14:51:45;100541.81;;;23.24;100.00
12801;BME280;6464;42.494;27.470;2023-04-26T14:54:12;100278.78;;;21.47;100.00
12801;BME280;6464;42.494;27.470;2023-04-26T14:56:39;100272.47;;;21.85;100.00
12801;BME280;6464;42.494;27.470;2023-04-26T14:59:11;100074.63;;;20.76;100.00
12801;BME280;6464;42.494;27.470;2023-04-26T15:01:39;99944.47;;;20.23;100.00
12801;BME280;6464;42.494;27.470;2023-04-26T15:04:15;99897.81;;;19.89;100.00
12801;BME280;6464;42.494;27.470;2023-04-26T15:07:03;99953.38;;;20.86;100.00
12801;BME280;6464;42.494;27.470;2023-04-26T15:09:35;99979.91;;;20.52;100.00
12801;BME280;6464;42.494;27.470;2023-04-26T15:12:02;100051.75;;;20.96;100.00
12801;BME280;6464;42.494;27.470;2023-04-26T15:14:36;100000.16;;;20.56;100.00
12801;BME280;6464;42.494;27.470;2023-04-26T15:17:25;99934.69;;;20.35;100.00
12801;BME280;6464;42.494;27.470;2023-04-26T15:20:11;99821.84;;;19.66;100.00
12801;BME280;6464;42.494;27.470;2023-04-26T15:22:54;99790.69;;;19.52;100.00
12801;BME280;6464;42.494;27.470;2023-04-26T15:25:34;99825.25;;;19.55;100.00
12801;BME280;6464;42.494;27.470;2023-04-26T15:28:05;99598.81;;;18.68;100.00
12801;BME280;6464;42.494;27.470;2023-04-26T15:30:36;99491.81;;;18.33;100.00
12801;BME280;6464;42.494;27.470;2023-04-26T15:33:04;99345.28;;;17.53;100.00
12801;BME280;6464;42.494;27.470;2023-04-26T15:35:31;99464.47;;;17.91;100.00
12801;BME280;6464;42.494;27.470;2023-04-26T15:38:00;99291.91;;;16.62;100.00
12801;BME280;6464;42.494;27.470;2023-04-26T15:40:30;99278.91;;;16.58;100.00
12801;BME280;6464;42.494;27.470;2023-04-26T15:43:00;99235.19;;;16.35;100.00
12801;BME280;6464;42.494;27.470;2023-04-26T15:45:28;99218.53;;;16.18;100.00
12801;BME280;6464;42.494;27.470;2023-04-26T15:48:09;99180.06;;;15.97;100.00
12801;BME280;6464;42.494;27.470;2023-04-26T15:50:40;99211.31;;;16.21;100.00
12801;BME280;6464;42.494;27.470;2023-04-26T15:53:22;99188.75;;;15.99;100.00
12801;BME280;6464;42.494;27.470;2023-04-26T15:55:55;99202.84;;;16.01;100.00
12801;BME280;6464;42.494;27.470;2023-04-26T15:58:29;99116.34;;;15.54;100.00
12801;BME280;6464;42.494;27.470;2023-04-26T16:01:05;99115.59;;;15.52;100.00
12801;BME280;6464;42.494;27.470;2023-04-26T16:03:34;99179.16;;;16.11;100.00
12801;BME280;6464;42.494;27.470;2023-04-26T16:06:02;99130.31;;;15.85;100.00
12801;BME280;6464;42.494;27.470;2023-04-26T16:08:31;99195.94;;;16.38;100.00
12801;BME280;6464;42.494;27.470;2023-04-26T16:11:03;99154.00;;;16.02;100.00
12801;BME280;6464;42.494;27.470;2023-04-26T16:13:31;98949.84;;;15.01;100.00
12801;BME280;6464;42.494;27.470;2023-04-26T16:16:05;99045.63;;;15.39;100.00
12801;BME280;6464;42.494;27.470;2023-04-26T16:18:34;99123.72;;;15.78;100.00
12801;BME280;6464;42.494;27.470;2023-04-26T16:21:05;99104.09;;;15.52;100.00
12801;BME280;6464;42.494;27.470;2023-04-26T16:23:34;99141.53;;;15.34;100.00
12801;BME280;6464;42.494;27.470;2023-04-26T16:26:02;99023.31;;;14.43;100.00
12801;BME280;6464;42.494;27.470;2023-04-26T16:28:31;99266.84;;;15.55;100.00
12801;BME280;6464;42.494;27.470;2023-04-26T16:30:59;99096.25;;;14.36;100.00
12801;BME280;6464;42.494;27.470;2023-04-26T16:33:27;99132.66;;;14.18;100.00
12801;BME280;6464;42.494;27.470;2023-04-26T16:35:59;99126.34;;;14.05;100.00
12801;BME280;6464;42.494;27.470;2023-04-26T16:38:27;99232.00;;;14.43;100.00
12801;BME280;6464;42.494;27.470;2023-04-26T16:40:58;99294.84;;;15.02;100.00
12801;BME280;6464;42.494;27.470;2023-04-26T16:43:27;99313.81;;;14.96;100.00
12801;BME280;6464;42.494;27.470;2023-04-26T16:45:58;99202.81;;;14.12;100.00
12801;BME280;6464;42.494;27.470;2023-04-26T16:48:29;99204.94;;;14.22;100.00
12801;BME280;6464;42.494;27.470;2023-04-26T16:51:02;99192.06;;;13.84;100.00
12801;BME280;6464;42.494;27.470;2023-04-26T16:53:31;99239.31;;;14.07;100.00
12801;BME280;6464;42.494;27.470;2023-04-26T16:55:59;99272.72;;;14.26;100.00
12801;BME280;6464;42.494;27.470;2023-04-26T16:58:27;99142.81;;;13.32;100.00
12801;BME280;6464;42.494;27.470;2023-04-26T17:00:58;99183.06;;;13.86;100.00
12801;BME280;6464;42.494;27.470;2023-04-26T17:03:27;99322.53;;;14.52;100.00
12801;BME280;6464;42.494;27.470;2023-04-26T17:06:00;99273.75;;;14.39;100.00
12801;BME280;6464;42.494;27.470;2023-04-26T17:08:28;99228.63;;;14.09;100.00
12801;BME280;6464;42.494;27.470;2023-04-26T17:10:59;99159.13;;;13.41;100.00
12801;BME280;6464;42.494;27.470;2023-04-26T17:13:28;99117.50;;;13.11;100.00
12801;BME280;6464;42.494;27.470;2023-04-26T17:15:59;99110.75;;;13.05;100.00
12801;BME280;6464;42.494;27.470;2023-04-26T17:18:29;99140.50;;;13.26;100.00
12801;BME280;6464;42.494;27.470;2023-04-26T17:21:30;99154.69;;;13.57;100.00
12801;BME280;6464;42.494;27.470;2023-04-26T17:26:37;99168.19;;;13.52;100.00
12801;BME280;6464;42.494;27.470;2023-04-26T17:29:25;99329.69;;;14.19;100.00
12801;BME280;6464;42.494;27.470;2023-04-26T17:32:04;99186.38;;;13.58;100.00
12801;BME280;6464;42.494;27.470;2023-04-26T17:34:36;99095.78;;;13.04;100.00
12801;BME280;6464;42.494;27.470;2023-04-26T17:37:35;99257.69;;;14.10;100.00
12801;BME280;6464;42.494;27.470;2023-04-26T17:40:08;99271.53;;;14.15;100.00
12801;BME280;6464;42.494;27.470;2023-04-26T17:42:51;99295.66;;;14.11;100.00
12801;BME280;6464;42.494;27.470;2023-04-26T17:45:37;99085.09;;;12.90;100.00
12801;BME280;6464;42.494;27.470;2023-04-26T17:48:10;99253.69;;;14.03;100.00
12801;BME280;6464;42.494;27.470;2023-04-26T17:53:16;99085.53;;;12.98;100.00
12801;BME280;6464;42.494;27.470;2023-04-26T18:02:51;99188.44;;;13.53;100.00
12801;BME280;6464;42.494;27.470;2023-04-26T18:05:32;99239.69;;;13.52;100.00
12801;BME280;6464;42.494;27.470;2023-04-26T18:08:41;99101.19;;;12.70;100.00
12801;BME280;6464;42.494;27.470;2023-04-26T18:11:17;99092.31;;;12.71;100.00
12801;BME280;6464;42.494;27.470;2023-04-26T18:13:50;99203.16;;;13.59;100.00
12801;BME280;6464;42.494;27.470;2023-04-26T18:16:19;99214.38;;;13.31;100.00
12801;BME280;6464;42.494;27.470;2023-04-26T18:18:49;99136.56;;;13.00;100.00
12801;BME280;6464;42.494;27.470;2023-04-26T18:21:26;99136.41;;;13.03;100.00
12801;BME280;6464;42.494;27.470;2023-04-26T18:27:10;99137.16;;;12.90;100.00
12801;BME280;6464;42.494;27.470;2023-04-26T18:30:07;99250.84;;;13.59;100.00
12801;BME280;6464;42.494;27.470;2023-04-26T18:32:43;99296.09;;;13.54;100.00
12801;BME280;6464;42.494;27.470;2023-04-26T18:35:36;99168.50;;;12.97;100.00
12801;BME280;6464;42.494;27.470;2023-04-26T18:38:21;99162.53;;;12.76;100.00
12801;BME280;6464;42.494;27.470;2023-04-26T18:40:56;99149.78;;;12.84;100.00